Dawson, TX (76639)

11:36 AM CST on February 14, 2016 (GMT -0600)
HUBBARD TX - EMVEECO IT SOLUTNS | | Change Station
CLOSE
Current Station
Personal Weather Station
Location: Hubbard, TX
Elevation: 643 ft
Nearby Weather Stations

Elev 643 ft 31.84 °N, 96.80 °W | Updated 0 second ago

Overcast
Overcast
63.5 °F
Feels Like 63.5 °F
N
0.0
Wind Variable Wind from SW
Gusts 0.0 mph

Today
High -- | Low -- °F
--% Chance of Precip.
Yesterday
High -- | Low -- °F
Precip. -- in
Pressure 30.00 in
Visibility 10.0 miles
Clouds Scattered Clouds 3000 ft
Overcast 3700 ft
Dew Point 57 °F
Humidity 80%
Rainfall 0.00 in
Snow Depth Not available.
7:10 AM 6:12 PM
Waxing Crescent, 43% visible
METAR KCRS 141653Z AUTO 21011KT 10SM SCT030 OVC037 19/12 A3000 RMK AO2 SLP157 T01890122
Pressure 30.00 in
Visibility 10.0 miles
Clouds Scattered Clouds 3000 ft
Overcast 3700 ft
Dew Point 57 °F
Humidity 80%
Rainfall 0.00 in
Snow Depth Not available.
7:10 AM 6:12 PM
Waxing Crescent, 43% visible
METAR KCRS 141653Z AUTO 21011KT 10SM SCT030 OVC037 19/12 A3000 RMK AO2 SLP157 T01890122

10-Day Weather Forecast

Almanac

Astronomy

Feb. 14, 2016 Rise Set
Actual Time
Civil Twilight
Nautical Twilight
Astronomical Twilight
Moon
Length of Visible Light
Length of Day
Tomorrow will be .
, % of the Moon is Illuminated

Today's Extremes

State Highs State Lows

Community

WunderPhotos

Upload Photos

1,892,859 photos uploaded!

WunderBlog® & News

Nearby

Air Quality

  Air Quality AQ Index Pollutant
Not available.

Snow Depth

Station Depth Elevation

Earthquake Activity

City Distance Mag. Time & Date
Minimum magnitude displayed is 2.5.

Coastal Water Temperatures

Place Temperature

Stations

Nearby Weather Stations

Station Location Temp. Windchill Dew Point Humidity Wind Precip. Elev Updated Type
                   

Watches & Warnings

There are currently no watches in effect.